HAAB/ADD METAR and TAF weather

Enter ICAO airport designator
Station Type Date Time Source
HAAB METAR 2021/05/12 05:00 UTC NOAA

HAAB 120500Z 17004KT 9999 FEW025 18/09 Q1027


Station Type Date Time Source
HAAB Decoded METAR 2021/05/12 05:00 UTC NOAA

Addis Ababa, Ethiopia (HAAB) 08-59N 038-48E 2324M
May 12, 2021 - 01:00 AM EDT / 2021.05.12 0500 UTC
Wind: from the S (170 degrees) at 5 MPH (4 KT):0
Visibility: greater than 7 mile(s):0
Sky conditions: mostly clear
Temperature: 64 F (18 C)
Dew Point: 48 F (9 C)
Relative Humidity: 55%
Pressure (altimeter): 30.33 in. Hg (1027 hPa)
ob: HAAB 120500Z 17004KT 9999 FEW025 18/09 Q1027
cycle: 5

Station Type Date Time Source
HAAB TAF 2021/05/12 06:57 UTC NOAA

TAF HAAB 120330Z 1206/1312 14008KT 9999 SCT028 SCT090
BECMG 1206/1213 12012KT -HZ BKN040

Example: see airport list